sensor_id;sensor_type;location;lat;lon;timestamp;pressure;altitude;pressure_sealevel;temperature;humidity
17373;BME280;8803;48.116;11.590;2024-03-22T00:01:15;96326.49;;;11.39;100.00
17373;BME280;8803;48.116;11.590;2024-03-22T00:05:34;96315.21;;;11.36;100.00
17373;BME280;8803;48.116;11.590;2024-03-22T00:07:39;96316.95;;;11.31;100.00
17373;BME280;8803;48.116;11.590;2024-03-22T00:09:44;96316.09;;;11.31;100.00
17373;BME280;8803;48.116;11.590;2024-03-22T00:14:02;96312.81;;;11.33;100.00
17373;BME280;8803;48.116;11.590;2024-03-22T00:16:09;96320.70;;;11.29;100.00
17373;BME280;8803;48.116;11.590;2024-03-22T00:20:27;96317.42;;;11.31;100.00
17373;BME280;8803;48.116;11.590;2024-03-22T00:24:44;96318.38;;;11.30;100.00
17373;BME280;8803;48.116;11.590;2024-03-22T00:26:49;96320.47;;;11.26;100.00
17373;BME280;8803;48.116;11.590;2024-03-22T00:31:06;96307.72;;;11.30;99.04
17373;BME280;8803;48.116;11.590;2024-03-22T00:35:23;96308.23;;;11.29;100.00
17373;BME280;8803;48.116;11.590;2024-03-22T00:39:42;96301.94;;;11.25;100.00
17373;BME280;8803;48.116;11.590;2024-03-22T00:46:16;96308.61;;;11.25;100.00
17373;BME280;8803;48.116;11.590;2024-03-22T00:50:34;96290.29;;;11.26;100.00
17373;BME280;8803;48.116;11.590;2024-03-22T00:52:40;96292.50;;;11.21;99.78
17373;BME280;8803;48.116;11.590;2024-03-22T00:56:58;96284.23;;;11.24;99.48
17373;BME280;8803;48.116;11.590;2024-03-22T01:01:17;96274.91;;;11.24;98.92
17373;BME280;8803;48.116;11.590;2024-03-22T01:05:35;96276.62;;;11.25;98.44
17373;BME280;8803;48.116;11.590;2024-03-22T01:09:54;96270.44;;;11.24;98.20
17373;BME280;8803;48.116;11.590;2024-03-22T01:11:59;96274.33;;;11.20;98.71
17373;BME280;8803;48.116;11.590;2024-03-22T01:16:18;96266.91;;;11.24;98.72
17373;BME280;8803;48.116;11.590;2024-03-22T01:20:36;96263.53;;;11.22;97.96
17373;BME280;8803;48.116;11.590;2024-03-22T01:24:54;96257.34;;;11.21;98.62
17373;BME280;8803;48.116;11.590;2024-03-22T01:29:14;96255.19;;;11.21;99.11
17373;BME280;8803;48.116;11.590;2024-03-22T01:33:33;96249.62;;;11.18;98.87
17373;BME280;8803;48.116;11.590;2024-03-22T01:35:38;96252.31;;;11.13;97.98
17373;BME280;8803;48.116;11.590;2024-03-22T01:37:43;96247.94;;;11.11;98.46
17373;BME280;8803;48.116;11.590;2024-03-22T01:39:48;96250.23;;;11.10;98.84
17373;BME280;8803;48.116;11.590;2024-03-22T01:44:07;96245.99;;;11.13;98.64
17373;BME280;8803;48.116;11.590;2024-03-22T01:48:26;96251.33;;;11.13;97.82
17373;BME280;8803;48.116;11.590;2024-03-22T01:52:43;96238.23;;;11.10;97.55
17373;BME280;8803;48.116;11.590;2024-03-22T01:59:15;96234.86;;;11.08;97.96
17373;BME280;8803;48.116;11.590;2024-03-22T02:03:33;96231.84;;;11.07;98.01
17373;BME280;8803;48.116;11.590;2024-03-22T02:05:38;96235.36;;;11.02;97.86
17373;BME280;8803;48.116;11.590;2024-03-22T02:07:43;96239.87;;;11.02;98.12
17373;BME280;8803;48.116;11.590;2024-03-22T02:12:02;96219.88;;;11.02;97.66
17373;BME280;8803;48.116;11.590;2024-03-22T02:16:21;96215.14;;;11.00;97.77
17373;BME280;8803;48.116;11.590;2024-03-22T02:20:40;96205.70;;;10.96;97.78
17373;BME280;8803;48.116;11.590;2024-03-22T02:25:00;96216.26;;;10.92;98.27
17373;BME280;8803;48.116;11.590;2024-03-22T02:29:19;96208.53;;;10.89;97.85
17373;BME280;8803;48.116;11.590;2024-03-22T02:33:38;96205.97;;;10.87;97.88
17373;BME280;8803;48.116;11.590;2024-03-22T02:37:57;96204.91;;;10.84;97.49
17373;BME280;8803;48.116;11.590;2024-03-22T02:40:03;96203.47;;;10.80;97.69
17373;BME280;8803;48.116;11.590;2024-03-22T02:44:21;96194.48;;;10.81;97.66
17373;BME280;8803;48.116;11.590;2024-03-22T02:48:40;96191.11;;;10.79;97.87
17373;BME280;8803;48.116;11.590;2024-03-22T02:52:59;96186.77;;;10.78;97.33
17373;BME280;8803;48.116;11.590;2024-03-22T02:57:18;96188.71;;;10.76;97.75
17373;BME280;8803;48.116;11.590;2024-03-22T03:01:39;96186.66;;;10.74;97.20
17373;BME280;8803;48.116;11.590;2024-03-22T03:05:58;96184.10;;;10.73;97.06
17373;BME280;8803;48.116;11.590;2024-03-22T03:10:18;96173.58;;;10.71;97.50
17373;BME280;8803;48.116;11.590;2024-03-22T03:14:38;96172.86;;;10.69;97.26
17373;BME280;8803;48.116;11.590;2024-03-22T03:16:43;96168.77;;;10.65;96.98
17373;BME280;8803;48.116;11.590;2024-03-22T03:21:01;96158.48;;;10.66;96.32
17373;BME280;8803;48.116;11.590;2024-03-22T03:25:18;96158.59;;;10.65;96.16
17373;BME280;8803;48.116;11.590;2024-03-22T03:29:38;96160.53;;;10.63;96.11
17373;BME280;8803;48.116;11.590;2024-03-22T03:33:56;96156.20;;;10.62;96.26
17373;BME280;8803;48.116;11.590;2024-03-22T03:38:16;96157.63;;;10.60;96.41
17373;BME280;8803;48.116;11.590;2024-03-22T03:42:34;96147.11;;;10.59;96.40
17373;BME280;8803;48.116;11.590;2024-03-22T03:46:53;96142.27;;;10.58;96.59
17373;BME280;8803;48.116;11.590;2024-03-22T03:51:12;96140.11;;;10.58;96.47
17373;BME280;8803;48.116;11.590;2024-03-22T03:55:30;96146.25;;;10.58;96.29
17373;BME280;8803;48.116;11.590;2024-03-22T03:59:50;96135.88;;;10.55;95.67
17373;BME280;8803;48.116;11.590;2024-03-22T04:01:55;96137.92;;;10.52;95.46
17373;BME280;8803;48.116;11.590;2024-03-22T04:06:14;96135.50;;;10.54;95.72
17373;BME280;8803;48.116;11.590;2024-03-22T04:10:33;96126.31;;;10.53;95.67
17373;BME280;8803;48.116;11.590;2024-03-22T04:12:38;96135.88;;;10.50;95.41
17373;BME280;8803;48.116;11.590;2024-03-22T04:16:56;96124.27;;;10.51;95.70
17373;BME280;8803;48.116;11.590;2024-03-22T04:21:13;96119.42;;;10.50;95.97
17373;BME280;8803;48.116;11.590;2024-03-22T04:25:32;96107.58;;;10.49;96.83
17373;BME280;8803;48.116;11.590;2024-03-22T04:27:38;96116.31;;;10.45;96.14
17373;BME280;8803;48.116;11.590;2024-03-22T04:29:44;96103.09;;;10.44;95.96
17373;BME280;8803;48.116;11.590;2024-03-22T04:34:04;96096.69;;;10.46;95.97
17373;BME280;8803;48.116;11.590;2024-03-22T04:38:27;96107.81;;;10.46;96.52
17373;BME280;8803;48.116;11.590;2024-03-22T04:42:45;96104.80;;;10.45;96.55
17373;BME280;8803;48.116;11.590;2024-03-22T04:47:03;96107.81;;;10.46;96.94
17373;BME280;8803;48.116;11.590;2024-03-22T04:51:20;96108.19;;;10.47;96.57
17373;BME280;8803;48.116;11.590;2024-03-22T04:55:39;96107.71;;;10.47;97.04
17373;BME280;8803;48.116;11.590;2024-03-22T05:00:00;96107.71;;;10.47;97.06
17373;BME280;8803;48.116;11.590;2024-03-22T05:04:20;96106.72;;;10.48;96.52
17373;BME280;8803;48.116;11.590;2024-03-22T05:08:39;96106.59;;;10.50;97.12
17373;BME280;8803;48.116;11.590;2024-03-22T05:12:59;96099.32;;;10.52;96.01
17373;BME280;8803;48.116;11.590;2024-03-22T05:17:16;96096.90;;;10.54;96.63
17373;BME280;8803;48.116;11.590;2024-03-22T05:21:34;96090.52;;;10.51;96.60
17373;BME280;8803;48.116;11.590;2024-03-22T05:23:39;96090.72;;;10.54;96.35
17373;BME280;8803;48.116;11.590;2024-03-22T05:27:57;96093.83;;;10.64;96.34
17373;BME280;8803;48.116;11.590;2024-03-22T05:32:16;96095.64;;;10.69;96.47
17373;BME280;8803;48.116;11.590;2024-03-22T05:36:35;96098.16;;;10.76;95.54
17373;BME280;8803;48.116;11.590;2024-03-22T05:40:52;96103.31;;;10.83;94.81
17373;BME280;8803;48.116;11.590;2024-03-22T05:45:11;96101.36;;;10.91;93.78
17373;BME280;8803;48.116;11.590;2024-03-22T05:49:28;96094.42;;;10.99;93.21
17373;BME280;8803;48.116;11.590;2024-03-22T05:51:34;96102.52;;;10.98;92.87
17373;BME280;8803;48.116;11.590;2024-03-22T05:55:52;96086.62;;;11.07;93.54
17373;BME280;8803;48.116;11.590;2024-03-22T05:57:57;96090.38;;;11.05;92.58
17373;BME280;8803;48.116;11.590;2024-03-22T06:02:16;96078.95;;;11.14;92.16
17373;BME280;8803;48.116;11.590;2024-03-22T06:04:21;96079.44;;;11.13;91.98
17373;BME280;8803;48.116;11.590;2024-03-22T06:08:40;96081.80;;;11.22;92.35
17373;BME280;8803;48.116;11.590;2024-03-22T06:13:00;96079.33;;;11.30;91.58
17373;BME280;8803;48.116;11.590;2024-03-22T06:15:08;96078.37;;;11.31;91.51
17373;BME280;8803;48.116;11.590;2024-03-22T06:19:26;96079.60;;;11.42;91.16
17373;BME280;8803;48.116;11.590;2024-03-22T06:23:45;96071.44;;;11.49;90.38
17373;BME280;8803;48.116;11.590;2024-03-22T06:25:53;96077.39;;;11.47;90.41
17373;BME280;8803;48.116;11.590;2024-03-22T06:27:59;96076.77;;;11.49;90.16
17373;BME280;8803;48.116;11.590;2024-03-22T06:30:07;96069.86;;;11.52;89.80
17373;BME280;8803;48.116;11.590;2024-03-22T06:32:12;96075.05;;;11.54;89.62
17373;BME280;8803;48.116;11.590;2024-03-22T06:36:40;96065.75;;;11.63;89.42
17373;BME280;8803;48.116;11.590;2024-03-22T06:40:59;96063.25;;;11.92;89.25
17373;BME280;8803;48.116;11.590;2024-03-22T06:45:19;96050.09;;;13.11;86.16
17373;BME280;8803;48.116;11.590;2024-03-22T06:49:36;96052.58;;;14.55;80.43
17373;BME280;8803;48.116;11.590;2024-03-22T06:53:55;96046.20;;;15.78;73.75
17373;BME280;8803;48.116;11.590;2024-03-22T06:56:00;96049.76;;;16.16;71.82
17373;BME280;8803;48.116;11.590;2024-03-22T07:00:19;96046.09;;;16.67;67.42
17373;BME280;8803;48.116;11.590;2024-03-22T07:04:37;96051.00;;;16.30;68.99
17373;BME280;8803;48.116;11.590;2024-03-22T07:08:56;96050.23;;;16.12;70.81
17373;BME280;8803;48.116;11.590;2024-03-22T07:13:15;96056.12;;;16.15;71.70
17373;BME280;8803;48.116;11.590;2024-03-22T07:15:20;96054.63;;;16.13;71.00
17373;BME280;8803;48.116;11.590;2024-03-22T07:19:37;96047.13;;;16.32;71.05
17373;BME280;8803;48.116;11.590;2024-03-22T07:21:42;96049.83;;;16.36;70.14
17373;BME280;8803;48.116;11.590;2024-03-22T07:26:01;96045.24;;;16.63;68.96
17373;BME280;8803;48.116;11.590;2024-03-22T07:30:21;96036.88;;;16.86;68.46
17373;BME280;8803;48.116;11.590;2024-03-22T07:34:41;96031.53;;;17.14;67.77
17373;BME280;8803;48.116;11.590;2024-03-22T07:39:00;96041.12;;;17.24;67.00
17373;BME280;8803;48.116;11.590;2024-03-22T07:43:19;96043.78;;;17.20;66.68
17373;BME280;8803;48.116;11.590;2024-03-22T07:45:24;96039.43;;;17.11;66.98
17373;BME280;8803;48.116;11.590;2024-03-22T07:47:29;96043.11;;;17.06;66.92
17373;BME280;8803;48.116;11.590;2024-03-22T07:49:34;96044.46;;;16.98;66.35
17373;BME280;8803;48.116;11.590;2024-03-22T07:53:56;96045.13;;;16.88;67.31
17373;BME280;8803;48.116;11.590;2024-03-22T07:58:15;96042.08;;;16.79;68.13
17373;BME280;8803;48.116;11.590;2024-03-22T08:02:34;96039.88;;;16.71;68.23
17373;BME280;8803;48.116;11.590;2024-03-22T08:06:53;96032.30;;;16.66;68.60
17373;BME280;8803;48.116;11.590;2024-03-22T08:11:10;96024.59;;;16.75;69.24
17373;BME280;8803;48.116;11.590;2024-03-22T08:15:27;96014.87;;;16.94;68.62
17373;BME280;8803;48.116;11.590;2024-03-22T08:19:47;96011.18;;;17.11;67.16
17373;BME280;8803;48.116;11.590;2024-03-22T08:24:06;96011.34;;;17.22;66.88
17373;BME280;8803;48.116;11.590;2024-03-22T08:28:25;96008.98;;;17.35;65.89
17373;BME280;8803;48.116;11.590;2024-03-22T08:32:43;96010.98;;;17.45;66.15
17373;BME280;8803;48.116;11.590;2024-03-22T08:37:02;96009.97;;;17.54;64.33
17373;BME280;8803;48.116;11.590;2024-03-22T08:41:19;96014.69;;;17.52;64.49
17373;BME280;8803;48.116;11.590;2024-03-22T08:45:40;96002.91;;;17.49;65.30
17373;BME280;8803;48.116;11.590;2024-03-22T08:49:58;95999.87;;;17.52;65.36
17373;BME280;8803;48.116;11.590;2024-03-22T08:54:17;95994.83;;;17.49;65.42
17373;BME280;8803;48.116;11.590;2024-03-22T08:58:34;95994.84;;;17.45;65.60
17373;BME280;8803;48.116;11.590;2024-03-22T09:02:52;95987.75;;;17.44;66.34
17373;BME280;8803;48.116;11.590;2024-03-22T09:07:12;95979.51;;;17.42;66.62
17373;BME280;8803;48.116;11.590;2024-03-22T09:11:31;95972.30;;;17.38;65.61
17373;BME280;8803;48.116;11.590;2024-03-22T09:15:56;95966.59;;;17.37;65.68
17373;BME280;8803;48.116;11.590;2024-03-22T09:20:14;95965.91;;;17.43;66.48
17373;BME280;8803;48.116;11.590;2024-03-22T09:24:32;95958.00;;;17.46;66.18
17373;BME280;8803;48.116;11.590;2024-03-22T09:28:50;95963.22;;;17.51;66.42
17373;BME280;8803;48.116;11.590;2024-03-22T09:33:09;95956.31;;;17.53;66.30
17373;BME280;8803;48.116;11.590;2024-03-22T09:37:31;95950.58;;;17.60;65.49
17373;BME280;8803;48.116;11.590;2024-03-22T09:41:48;95946.36;;;17.61;65.02
17373;BME280;8803;48.116;11.590;2024-03-22T09:46:09;95942.81;;;17.61;65.58
17373;BME280;8803;48.116;11.590;2024-03-22T09:50:30;95938.63;;;17.62;64.56
17373;BME280;8803;48.116;11.590;2024-03-22T09:52:37;95943.00;;;17.59;64.33
17373;BME280;8803;48.116;11.590;2024-03-22T09:56:59;95930.36;;;17.64;63.80
17373;BME280;8803;48.116;11.590;2024-03-22T10:01:17;95930.02;;;17.63;63.30
17373;BME280;8803;48.116;11.590;2024-03-22T10:05:36;95925.84;;;17.60;61.16
17373;BME280;8803;48.116;11.590;2024-03-22T10:07:42;95923.30;;;17.59;61.12
17373;BME280;8803;48.116;11.590;2024-03-22T10:12:01;95919.61;;;17.60;60.72
17373;BME280;8803;48.116;11.590;2024-03-22T10:16:20;95910.02;;;17.57;58.42
17373;BME280;8803;48.116;11.590;2024-03-22T10:20:39;95915.24;;;17.55;58.65
17373;BME280;8803;48.116;11.590;2024-03-22T10:24:58;95906.50;;;17.53;58.82
17373;BME280;8803;48.116;11.590;2024-03-22T10:29:20;95898.77;;;17.54;59.01
17373;BME280;8803;48.116;11.590;2024-03-22T10:31:25;95898.09;;;17.48;58.86
17373;BME280;8803;48.116;11.590;2024-03-22T10:33:31;95897.08;;;17.45;58.34
17373;BME280;8803;48.116;11.590;2024-03-22T10:35:37;95892.19;;;17.44;58.77
17373;BME280;8803;48.116;11.590;2024-03-22T10:39:59;95887.98;;;17.42;57.66
17373;BME280;8803;48.116;11.590;2024-03-22T10:44:21;95877.59;;;17.34;57.78
17373;BME280;8803;48.116;11.590;2024-03-22T10:46:29;95883.14;;;17.29;58.50
17373;BME280;8803;48.116;11.590;2024-03-22T10:50:49;95881.80;;;17.29;58.37
17373;BME280;8803;48.116;11.590;2024-03-22T10:52:56;95878.81;;;17.24;58.66
17373;BME280;8803;48.116;11.590;2024-03-22T10:57:18;95872.72;;;17.34;61.17
17373;BME280;8803;48.116;11.590;2024-03-22T11:01:37;95869.69;;;17.37;60.20
17373;BME280;8803;48.116;11.590;2024-03-22T11:05:57;95863.11;;;17.35;59.09
17373;BME280;8803;48.116;11.590;2024-03-22T11:10:18;95861.78;;;17.31;58.79
17373;BME280;8803;48.116;11.590;2024-03-22T11:14:35;95854.37;;;17.33;59.57
17373;BME280;8803;48.116;11.590;2024-03-22T11:16:43;95858.11;;;17.28;59.15
17373;BME280;8803;48.116;11.590;2024-03-22T11:21:02;95847.48;;;17.31;58.77
17373;BME280;8803;48.116;11.590;2024-03-22T11:25:24;95840.91;;;17.33;61.08
17373;BME280;8803;48.116;11.590;2024-03-22T11:29:44;95840.75;;;17.31;58.55
17373;BME280;8803;48.116;11.590;2024-03-22T11:34:05;95826.80;;;17.31;60.47
17373;BME280;8803;48.116;11.590;2024-03-22T11:40:39;95815.87;;;17.29;60.07
17373;BME280;8803;48.116;11.590;2024-03-22T11:42:46;95811.70;;;17.26;60.43
17373;BME280;8803;48.116;11.590;2024-03-22T11:47:06;95809.02;;;17.22;58.35
17373;BME280;8803;48.116;11.590;2024-03-22T11:51:24;95795.94;;;17.11;57.35
17373;BME280;8803;48.116;11.590;2024-03-22T11:55:43;95783.34;;;17.12;58.50
17373;BME280;8803;48.116;11.590;2024-03-22T12:00:08;95775.72;;;17.19;60.99
17373;BME280;8803;48.116;11.590;2024-03-22T12:04:27;95772.34;;;17.21;61.42
17373;BME280;8803;48.116;11.590;2024-03-22T12:08:44;95757.55;;;17.21;60.55
17373;BME280;8803;48.116;11.590;2024-03-22T12:13:01;95750.83;;;17.21;59.06
17373;BME280;8803;48.116;11.590;2024-03-22T12:17:22;95746.08;;;17.27;59.97
17373;BME280;8803;48.116;11.590;2024-03-22T12:21:38;95744.23;;;17.28;58.73
17373;BME280;8803;48.116;11.590;2024-03-22T12:25:57;95737.45;;;17.36;59.53
17373;BME280;8803;48.116;11.590;2024-03-22T12:30:17;95734.05;;;17.42;60.35
17373;BME280;8803;48.116;11.590;2024-03-22T12:34:36;95730.52;;;17.42;59.51
17373;BME280;8803;48.116;11.590;2024-03-22T12:38:55;95714.74;;;17.38;59.66
17373;BME280;8803;48.116;11.590;2024-03-22T12:41:00;95713.87;;;17.42;60.11
17373;BME280;8803;48.116;11.590;2024-03-22T12:45:20;95702.20;;;17.58;60.15
17373;BME280;8803;48.116;11.590;2024-03-22T12:49:38;95686.80;;;17.70;60.70
17373;BME280;8803;48.116;11.590;2024-03-22T12:53:57;95676.53;;;17.70;60.09
17373;BME280;8803;48.116;11.590;2024-03-22T12:58:14;95677.61;;;17.79;60.05
17373;BME280;8803;48.116;11.590;2024-03-22T13:02:34;95665.95;;;17.87;60.13
17373;BME280;8803;48.116;11.590;2024-03-22T13:09:11;95657.45;;;17.98;60.77
17373;BME280;8803;48.116;11.590;2024-03-22T13:11:16;95660.84;;;17.96;60.42
17373;BME280;8803;48.116;11.590;2024-03-22T13:13:21;95652.88;;;17.98;59.19
17373;BME280;8803;48.116;11.590;2024-03-22T13:15:27;95649.48;;;18.00;59.16
17373;BME280;8803;48.116;11.590;2024-03-22T13:19:47;95634.42;;;18.10;59.26
17373;BME280;8803;48.116;11.590;2024-03-22T13:24:05;95630.09;;;18.20;59.08
17373;BME280;8803;48.116;11.590;2024-03-22T13:28:24;95614.03;;;18.26;58.90
17373;BME280;8803;48.116;11.590;2024-03-22T13:32:43;95612.28;;;18.33;59.30
17373;BME280;8803;48.116;11.590;2024-03-22T13:37:02;95599.45;;;18.35;58.45
17373;BME280;8803;48.116;11.590;2024-03-22T13:41:21;95595.00;;;18.42;59.35
17373;BME280;8803;48.116;11.590;2024-03-22T13:45:43;95589.70;;;18.49;60.26
17373;BME280;8803;48.116;11.590;2024-03-22T13:50:01;95580.15;;;18.46;55.60
17373;BME280;8803;48.116;11.590;2024-03-22T13:54:20;95577.62;;;18.45;56.49
17373;BME280;8803;48.116;11.590;2024-03-22T13:58:39;95570.52;;;18.48;58.41
17373;BME280;8803;48.116;11.590;2024-03-22T14:00:44;95573.41;;;18.46;59.42
17373;BME280;8803;48.116;11.590;2024-03-22T14:02:50;95571.53;;;18.47;59.79
17373;BME280;8803;48.116;11.590;2024-03-22T14:07:08;95557.03;;;18.48;58.38
17373;BME280;8803;48.116;11.590;2024-03-22T14:11:27;95562.09;;;18.47;58.43
17373;BME280;8803;48.116;11.590;2024-03-22T14:15:45;95545.41;;;18.47;56.01
17373;BME280;8803;48.116;11.590;2024-03-22T14:17:51;95545.94;;;18.43;55.07
17373;BME280;8803;48.116;11.590;2024-03-22T14:19:56;95537.84;;;18.43;55.91
17373;BME280;8803;48.116;11.590;2024-03-22T14:24:16;95529.72;;;18.51;55.54
17373;BME280;8803;48.116;11.590;2024-03-22T14:28:41;95529.03;;;18.49;56.27
17373;BME280;8803;48.116;11.590;2024-03-22T14:33:00;95517.09;;;18.47;56.30
17373;BME280;8803;48.116;11.590;2024-03-22T14:35:06;95521.84;;;18.45;57.69
17373;BME280;8803;48.116;11.590;2024-03-22T14:39:24;95502.41;;;18.50;59.96
17373;BME280;8803;48.116;11.590;2024-03-22T14:43:42;95501.63;;;18.45;59.92
17373;BME280;8803;48.116;11.590;2024-03-22T14:48:01;95488.37;;;18.40;60.70
17373;BME280;8803;48.116;11.590;2024-03-22T14:52:23;95491.43;;;18.37;61.55
17373;BME280;8803;48.116;11.590;2024-03-22T14:54:28;95481.09;;;18.30;61.63
17373;BME280;8803;48.116;11.590;2024-03-22T14:58:46;95480.05;;;18.31;60.75
17373;BME280;8803;48.116;11.590;2024-03-22T15:03:11;95474.02;;;18.29;59.62
17373;BME280;8803;48.116;11.590;2024-03-22T15:07:30;95459.25;;;18.25;56.03
17373;BME280;8803;48.116;11.590;2024-03-22T15:11:49;95455.35;;;18.27;60.66
17373;BME280;8803;48.116;11.590;2024-03-22T15:16:09;95455.02;;;18.26;60.69
17373;BME280;8803;48.116;11.590;2024-03-22T15:20:26;95441.23;;;18.25;61.06
17373;BME280;8803;48.116;11.590;2024-03-22T15:24:44;95446.09;;;18.26;60.48
17373;BME280;8803;48.116;11.590;2024-03-22T15:29:00;95435.90;;;18.21;53.67
17373;BME280;8803;48.116;11.590;2024-03-22T15:33:19;95424.58;;;18.22;55.41
17373;BME280;8803;48.116;11.590;2024-03-22T15:37:44;95419.13;;;18.26;59.62
17373;BME280;8803;48.116;11.590;2024-03-22T15:42:03;95416.78;;;18.27;57.95
17373;BME280;8803;48.116;11.590;2024-03-22T15:46:22;95413.82;;;18.32;58.76
17373;BME280;8803;48.116;11.590;2024-03-22T15:50:41;95403.75;;;18.30;53.63
17373;BME280;8803;48.116;11.590;2024-03-22T15:55:00;95400.18;;;18.34;53.53
17373;BME280;8803;48.116;11.590;2024-03-22T15:59:20;95401.40;;;18.42;57.82
17373;BME280;8803;48.116;11.590;2024-03-22T16:03:41;95397.97;;;18.48;59.94
17373;BME280;8803;48.116;11.590;2024-03-22T16:08:00;95390.08;;;18.46;60.19
17373;BME280;8803;48.116;11.590;2024-03-22T16:12:22;95384.16;;;18.47;59.85
17373;BME280;8803;48.116;11.590;2024-03-22T16:16:41;95390.98;;;18.39;60.46
17373;BME280;8803;48.116;11.590;2024-03-22T16:20:59;95383.67;;;18.33;59.59
17373;BME280;8803;48.116;11.590;2024-03-22T16:25:20;95374.16;;;18.26;61.22
17373;BME280;8803;48.116;11.590;2024-03-22T16:29:36;95372.88;;;18.22;58.63
17373;BME280;8803;48.116;11.590;2024-03-22T16:33:54;95367.16;;;18.10;58.20
17373;BME280;8803;48.116;11.590;2024-03-22T16:38:11;95367.22;;;18.06;60.77
17373;BME280;8803;48.116;11.590;2024-03-22T16:42:45;95353.48;;;18.01;61.39
17373;BME280;8803;48.116;11.590;2024-03-22T16:47:04;95353.73;;;17.96;61.92
17373;BME280;8803;48.116;11.590;2024-03-22T16:51:24;95353.45;;;17.91;61.58
17373;BME280;8803;48.116;11.590;2024-03-22T16:55:41;95341.95;;;17.82;60.17
17373;BME280;8803;48.116;11.590;2024-03-22T17:00:00;95345.91;;;17.76;62.64
17373;BME280;8803;48.116;11.590;2024-03-22T17:06:29;95337.80;;;17.65;62.73
17373;BME280;8803;48.116;11.590;2024-03-22T17:10:50;95345.73;;;17.63;62.24
17373;BME280;8803;48.116;11.590;2024-03-22T17:15:11;95337.46;;;17.54;62.76
17373;BME280;8803;48.116;11.590;2024-03-22T17:19:28;95338.73;;;17.43;63.27
17373;BME280;8803;48.116;11.590;2024-03-22T17:23:49;95344.22;;;17.35;63.93
17373;BME280;8803;48.116;11.590;2024-03-22T17:28:12;95338.09;;;17.26;64.12
17373;BME280;8803;48.116;11.590;2024-03-22T17:32:31;95337.61;;;17.23;64.45
17373;BME280;8803;48.116;11.590;2024-03-22T17:34:37;95335.86;;;17.15;64.05
17373;BME280;8803;48.116;11.590;2024-03-22T17:38:56;95333.21;;;17.11;64.53
17373;BME280;8803;48.116;11.590;2024-03-22T17:43:15;95336.50;;;17.03;64.98
17373;BME280;8803;48.116;11.590;2024-03-22T17:47:33;95329.48;;;16.98;65.45
17373;BME280;8803;48.116;11.590;2024-03-22T17:51:50;95328.87;;;16.92;65.50
17373;BME280;8803;48.116;11.590;2024-03-22T17:56:09;95328.61;;;16.87;65.91
17373;BME280;8803;48.116;11.590;2024-03-22T18:00:34;95324.28;;;16.82;65.98
17373;BME280;8803;48.116;11.590;2024-03-22T18:04:53;95325.33;;;16.77;66.16
17373;BME280;8803;48.116;11.590;2024-03-22T18:09:13;95326.40;;;16.72;66.39
17373;BME280;8803;48.116;11.590;2024-03-22T18:13:32;95331.48;;;16.67;66.49
17373;BME280;8803;48.116;11.590;2024-03-22T18:17:55;95317.23;;;16.62;66.71
17373;BME280;8803;48.116;11.590;2024-03-22T18:22:13;95320.46;;;16.57;66.84
17373;BME280;8803;48.116;11.590;2024-03-22T18:26:34;95322.19;;;16.54;66.98
17373;BME280;8803;48.116;11.590;2024-03-22T18:30:53;95318.19;;;16.50;67.02
17373;BME280;8803;48.116;11.590;2024-03-22T18:35:12;95314.67;;;16.46;67.18
17373;BME280;8803;48.116;11.590;2024-03-22T18:39:31;95310.17;;;16.42;67.30
17373;BME280;8803;48.116;11.590;2024-03-22T18:43:54;95300.62;;;16.40;67.43
17373;BME280;8803;48.116;11.590;2024-03-22T18:48:14;95299.31;;;16.36;67.42
17373;BME280;8803;48.116;11.590;2024-03-22T18:52:33;95293.78;;;16.33;67.52
17373;BME280;8803;48.116;11.590;2024-03-22T18:56:54;95289.60;;;16.31;67.71
17373;BME280;8803;48.116;11.590;2024-03-22T19:01:13;95285.95;;;16.28;67.80
17373;BME280;8803;48.116;11.590;2024-03-22T19:05:35;95278.43;;;16.23;68.01
17373;BME280;8803;48.116;11.590;2024-03-22T19:09:53;95281.27;;;16.22;68.10
17373;BME280;8803;48.116;11.590;2024-03-22T19:16:28;95271.91;;;16.18;68.13
17373;BME280;8803;48.116;11.590;2024-03-22T19:20:46;95268.26;;;16.15;68.39
17373;BME280;8803;48.116;11.590;2024-03-22T19:22:52;95265.61;;;16.11;68.34
17373;BME280;8803;48.116;11.590;2024-03-22T19:27:10;95264.58;;;16.12;68.44
17373;BME280;8803;48.116;11.590;2024-03-22T19:31:30;95262.27;;;16.09;68.64
17373;BME280;8803;48.116;11.590;2024-03-22T19:35:47;95256.75;;;16.06;69.16
17373;BME280;8803;48.116;11.590;2024-03-22T19:40:14;95261.62;;;16.03;68.95
17373;BME280;8803;48.116;11.590;2024-03-22T19:44:33;95255.78;;;15.99;69.02
17373;BME280;8803;48.116;11.590;2024-03-22T19:48:52;95256.16;;;15.96;68.94
17373;BME280;8803;48.116;11.590;2024-03-22T19:53:12;95261.88;;;15.93;69.14
17373;BME280;8803;48.116;11.590;2024-03-22T19:57:30;95254.36;;;15.89;68.91
17373;BME280;8803;48.116;11.590;2024-03-22T20:01:49;95255.73;;;15.85;68.73
17373;BME280;8803;48.116;11.590;2024-03-22T20:06:07;95250.05;;;15.79;69.13
17373;BME280;8803;48.116;11.590;2024-03-22T20:10:26;95249.92;;;15.77;69.21
17373;BME280;8803;48.116;11.590;2024-03-22T20:14:45;95247.09;;;15.74;69.49
17373;BME280;8803;48.116;11.590;2024-03-22T20:19:07;95241.56;;;15.72;69.29
17373;BME280;8803;48.116;11.590;2024-03-22T20:23:27;95244.09;;;15.69;69.50
17373;BME280;8803;48.116;11.590;2024-03-22T20:27:49;95245.27;;;15.67;69.74
17373;BME280;8803;48.116;11.590;2024-03-22T20:32:08;95239.78;;;15.64;69.91
17373;BME280;8803;48.116;11.590;2024-03-22T20:36:27;95244.30;;;15.64;70.22
